Sunday, October 26, 2014
08:37 UTC
  |  Log In   |  Register Free
Airport Search:

Coleman Municipal Airport
(KCOM)

Coleman Municipal Airport Diagram
No Airport Diagram Available

FAA data valid effective September 18, 2014 - November 13, 2014 (unless otherwise noted).

 
 
 
 
 
 
 
 
 
 
 
 
 
 

Current Aviation Weather for Coleman Municipal Airport (KCOM)

The most recent METAR observation for KCOM was updated at: 0808
METAR Summary (Translated METAR)
KCOM
260755Z AUTO 21005KT 10SM CLR 18/13 A3006 RMK AO2 T01790125
KBWD
260735Z AUTO 00000KT 10SM FEW037 FEW044 16/13 A3006 RMK AO2
(23 nm SE from KCOM)
KABI
260752Z 20007KT 10SM CLR 19/11 A3004 RMK AO2 SLP147 T01940106 $
(37 nm NW from KCOM)
TAF Summary (Translated TAF)
KABI
(37 nm NW from KCOM)
260533Z 2606/2706 18009KT P6SM SKC
  Airport Weather Conditions for KCOM

 Current Weather at COM
64° F
Fair
Southwest winds at 4.6 mph
COM NOAA Radar

Pressure: 30.07 in
Humidity: 75%
Wind: Southwest at 4.6 MPH (4 KT)
Dew Point: 55.6°F
Visibility: 10.00 mi


Airport Weather Forecast for KCOM

Translated METAR and TAF for KCOM
Translated METAR for KCOM (0832 UTC 26 October 2014)
found at http://aviationweather.gov/adds/metars/
 
METAR text: KCOM 260815Z AUTO 21006KT 10SM CLR 18/13 A3005 RMK AO2 T01750125
Conditions at: KCOM (COLEMAN MUNI , TX, US) observed 0815 UTC 26 October 2014
Temperature: 17.5°C (64°F)
Dewpoint: 12.5°C (54°F) [RH = 72%]
Pressure (altimeter): 30.05 inches Hg (1017.7 mb)
Winds: from the SSW (210 degrees) at 7 MPH (6 knots; 3.1 m/s)
Visibility: 10 or more miles (16+ km)
Ceiling: at least 12,000 feet AGL
Clouds: sky clear below 12,000 feet AGL
Weather: automated observation with no human augmentation;
there may or may not be significant weather present at this time
Translated TAF for KCOM

There is no translated TAF available for this airport

Find All Airport Services Find A Hotel Find A Rental Car Find A Golf Course Find A Restaurant $100 Hamburger



FBO's on the Field
FBO Company Facility Photos Services Transportation Aviation Fuel Prices: Prices include tax
Catering Weather Repair Courtesy Rental Type 100LL JetA JetA+ MOGAS 8087
 
Add another FBO Facility Photos Catering Weather Repair Courtesy Rental Type 100LL JetA JetA+ MOGAS 8087
Services Transportation Aviation Fuel Prices: Prices include tax
There are no FBO's currently reporting fuel at COM. List your FBO now


model-print
model-print
model-print
model-print